sensor_id;sensor_type;location;lat;lon;timestamp;pressure;altitude;pressure_sealevel;temperature;humidity
32873;BME280;19224;52.462;16.898;2023-11-19T00:02:24;100807.98;;;4.67;100.00
32873;BME280;19224;52.462;16.898;2023-11-19T00:04:55;100798.17;;;4.69;100.00
32873;BME280;19224;52.462;16.898;2023-11-19T00:07:26;100797.75;;;4.68;100.00
32873;BME280;19224;52.462;16.898;2023-11-19T00:09:56;100788.58;;;4.56;100.00
32873;BME280;19224;52.462;16.898;2023-11-19T00:12:26;100776.58;;;4.56;100.00
32873;BME280;19224;52.462;16.898;2023-11-19T00:14:56;100755.30;;;4.50;100.00
32873;BME280;19224;52.462;16.898;2023-11-19T00:17:27;100751.04;;;4.37;100.00
32873;BME280;19224;52.462;16.898;2023-11-19T00:19:57;100757.59;;;4.45;100.00
32873;BME280;19224;52.462;16.898;2023-11-19T00:22:27;100757.28;;;4.33;100.00
32873;BME280;19224;52.462;16.898;2023-11-19T00:24:58;100750.67;;;4.30;100.00
32873;BME280;19224;52.462;16.898;2023-11-19T00:27:28;100748.00;;;4.30;100.00
32873;BME280;19224;52.462;16.898;2023-11-19T00:29:59;100734.41;;;4.17;100.00
32873;BME280;19224;52.462;16.898;2023-11-19T00:32:29;100730.08;;;4.07;100.00
32873;BME280;19224;52.462;16.898;2023-11-19T00:35:00;100736.26;;;4.11;100.00
32873;BME280;19224;52.462;16.898;2023-11-19T00:37:31;100730.61;;;3.99;100.00
32873;BME280;19224;52.462;16.898;2023-11-19T00:40:03;100730.36;;;3.83;100.00
32873;BME280;19224;52.462;16.898;2023-11-19T00:42:34;100716.57;;;3.85;100.00
32873;BME280;19224;52.462;16.898;2023-11-19T00:45:05;100706.34;;;3.86;100.00
32873;BME280;19224;52.462;16.898;2023-11-19T00:47:39;100701.50;;;3.83;100.00
32873;BME280;19224;52.462;16.898;2023-11-19T00:50:10;100699.25;;;3.85;100.00
32873;BME280;19224;52.462;16.898;2023-11-19T00:52:41;100695.30;;;3.84;100.00
32873;BME280;19224;52.462;16.898;2023-11-19T00:55:12;100686.80;;;3.87;100.00
32873;BME280;19224;52.462;16.898;2023-11-19T00:57:42;100680.13;;;3.87;100.00
32873;BME280;19224;52.462;16.898;2023-11-19T01:00:13;100673.47;;;3.87;100.00
32873;BME280;19224;52.462;16.898;2023-11-19T01:02:51;100657.64;;;3.75;100.00
32873;BME280;19224;52.462;16.898;2023-11-19T01:05:22;100655.84;;;3.77;100.00
32873;BME280;19224;52.462;16.898;2023-11-19T01:07:52;100649.91;;;3.91;100.00
32873;BME280;19224;52.462;16.898;2023-11-19T01:10:23;100636.66;;;3.87;100.00
32873;BME280;19224;52.462;16.898;2023-11-19T01:12:54;100639.80;;;3.83;100.00
32873;BME280;19224;52.462;16.898;2023-11-19T01:15:25;100627.91;;;3.76;100.00
32873;BME280;19224;52.462;16.898;2023-11-19T01:17:55;100633.14;;;3.82;100.00
32873;BME280;19224;52.462;16.898;2023-11-19T01:20:25;100639.22;;;3.93;100.00
32873;BME280;19224;52.462;16.898;2023-11-19T01:22:55;100634.42;;;3.86;100.00
32873;BME280;19224;52.462;16.898;2023-11-19T01:25:26;100629.87;;;3.96;100.00
32873;BME280;19224;52.462;16.898;2023-11-19T01:27:56;100637.81;;;4.00;100.00
32873;BME280;19224;52.462;16.898;2023-11-19T01:30:28;100637.83;;;3.97;100.00
32873;BME280;19224;52.462;16.898;2023-11-19T01:32:59;100628.02;;;4.02;100.00
32873;BME280;19224;52.462;16.898;2023-11-19T01:35:29;100623.53;;;4.06;100.00
32873;BME280;19224;52.462;16.898;2023-11-19T01:38:01;100620.45;;;4.03;100.00
32873;BME280;19224;52.462;16.898;2023-11-19T01:40:31;100615.49;;;4.07;100.00
32873;BME280;19224;52.462;16.898;2023-11-19T01:43:02;100614.64;;;4.05;100.00
32873;BME280;19224;52.462;16.898;2023-11-19T01:45:32;100607.13;;;4.03;100.00
32873;BME280;19224;52.462;16.898;2023-11-19T01:48:04;100585.87;;;3.97;100.00
32873;BME280;19224;52.462;16.898;2023-11-19T01:50:35;100568.06;;;4.02;100.00
32873;BME280;19224;52.462;16.898;2023-11-19T01:53:05;100563.05;;;4.09;100.00
32873;BME280;19224;52.462;16.898;2023-11-19T01:55:35;100556.80;;;4.13;100.00
32873;BME280;19224;52.462;16.898;2023-11-19T01:58:06;100556.39;;;4.09;100.00
32873;BME280;19224;52.462;16.898;2023-11-19T02:00:37;100558.61;;;4.11;100.00
32873;BME280;19224;52.462;16.898;2023-11-19T02:03:08;100546.08;;;4.16;100.00
32873;BME280;19224;52.462;16.898;2023-11-19T02:05:40;100540.94;;;4.04;100.00
32873;BME280;19224;52.462;16.898;2023-11-19T02:08:11;100537.73;;;4.09;100.00
32873;BME280;19224;52.462;16.898;2023-11-19T02:10:42;100533.73;;;4.09;100.00
32873;BME280;19224;52.462;16.898;2023-11-19T02:13:13;100526.69;;;4.07;100.00
32873;BME280;19224;52.462;16.898;2023-11-19T02:15:43;100523.13;;;4.06;100.00
32873;BME280;19224;52.462;16.898;2023-11-19T02:18:27;100520.41;;;4.09;100.00
32873;BME280;19224;52.462;16.898;2023-11-19T02:20:58;100521.91;;;4.00;100.00
32873;BME280;19224;52.462;16.898;2023-11-19T02:23:29;100520.05;;;4.04;100.00
32873;BME280;19224;52.462;16.898;2023-11-19T02:26:28;100507.52;;;4.10;100.00
32873;BME280;19224;52.462;16.898;2023-11-19T02:28:57;100502.45;;;4.23;100.00
32873;BME280;19224;52.462;16.898;2023-11-19T02:31:27;100493.63;;;4.18;100.00
32873;BME280;19224;52.462;16.898;2023-11-19T02:33:59;100502.64;;;4.11;100.00
32873;BME280;19224;52.462;16.898;2023-11-19T02:36:32;100498.17;;;4.12;100.00
32873;BME280;19224;52.462;16.898;2023-11-19T02:39:02;100492.50;;;4.05;100.00
32873;BME280;19224;52.462;16.898;2023-11-19T02:41:33;100477.47;;;4.02;100.00
32873;BME280;19224;52.462;16.898;2023-11-19T02:44:04;100479.39;;;4.19;100.00
32873;BME280;19224;52.462;16.898;2023-11-19T02:46:34;100481.90;;;4.30;100.00
32873;BME280;19224;52.462;16.898;2023-11-19T02:49:05;100472.00;;;4.11;100.00
32873;BME280;19224;52.462;16.898;2023-11-19T02:51:35;100465.72;;;4.14;100.00
32873;BME280;19224;52.462;16.898;2023-11-19T02:54:06;100452.73;;;4.21;100.00
32873;BME280;19224;52.462;16.898;2023-11-19T02:56:36;100439.84;;;4.20;100.00
32873;BME280;19224;52.462;16.898;2023-11-19T02:59:08;100446.91;;;4.23;100.00
32873;BME280;19224;52.462;16.898;2023-11-19T03:01:40;100442.85;;;4.26;100.00
32873;BME280;19224;52.462;16.898;2023-11-19T03:04:12;100438.34;;;4.31;100.00
32873;BME280;19224;52.462;16.898;2023-11-19T03:06:44;100424.94;;;4.35;100.00
32873;BME280;19224;52.462;16.898;2023-11-19T03:09:14;100414.30;;;4.32;100.00
32873;BME280;19224;52.462;16.898;2023-11-19T03:11:44;100405.39;;;4.33;100.00
32873;BME280;19224;52.462;16.898;2023-11-19T03:14:14;100393.53;;;4.27;100.00
32873;BME280;19224;52.462;16.898;2023-11-19T03:16:48;100384.84;;;4.16;100.00
32873;BME280;19224;52.462;16.898;2023-11-19T03:19:19;100373.97;;;4.27;100.00
32873;BME280;19224;52.462;16.898;2023-11-19T03:21:50;100377.26;;;4.19;100.00
32873;BME280;19224;52.462;16.898;2023-11-19T03:24:20;100378.09;;;4.22;100.00
32873;BME280;19224;52.462;16.898;2023-11-19T03:26:50;100376.36;;;4.18;100.00
32873;BME280;19224;52.462;16.898;2023-11-19T03:29:22;100375.42;;;4.22;100.00
32873;BME280;19224;52.462;16.898;2023-11-19T03:31:52;100366.19;;;4.16;100.00
32873;BME280;19224;52.462;16.898;2023-11-19T03:34:22;100357.76;;;4.17;100.00
32873;BME280;19224;52.462;16.898;2023-11-19T03:36:52;100346.13;;;4.21;100.00
32873;BME280;19224;52.462;16.898;2023-11-19T03:39:23;100339.47;;;4.19;100.00
32873;BME280;19224;52.462;16.898;2023-11-19T03:41:54;100324.39;;;4.18;100.00
32873;BME280;19224;52.462;16.898;2023-11-19T03:44:25;100321.98;;;4.28;100.00
32873;BME280;19224;52.462;16.898;2023-11-19T03:46:56;100314.30;;;4.35;100.00
32873;BME280;19224;52.462;16.898;2023-11-19T03:49:26;100316.42;;;4.39;100.00
32873;BME280;19224;52.462;16.898;2023-11-19T03:51:57;100302.31;;;4.35;100.00
32873;BME280;19224;52.462;16.898;2023-11-19T03:54:27;100293.90;;;4.11;100.00
32873;BME280;19224;52.462;16.898;2023-11-19T03:56:58;100307.23;;;4.09;100.00
32873;BME280;19224;52.462;16.898;2023-11-19T03:59:29;100296.66;;;4.05;100.00
32873;BME280;19224;52.462;16.898;2023-11-19T04:01:59;100291.31;;;4.06;100.00
32873;BME280;19224;52.462;16.898;2023-11-19T04:04:31;100278.91;;;4.05;100.00
32873;BME280;19224;52.462;16.898;2023-11-19T04:07:03;100279.98;;;4.19;100.00
32873;BME280;19224;52.462;16.898;2023-11-19T04:09:33;100271.56;;;4.18;100.00
32873;BME280;19224;52.462;16.898;2023-11-19T04:12:06;100267.78;;;4.28;100.00
32873;BME280;19224;52.462;16.898;2023-11-19T04:14:37;100275.90;;;4.23;100.00
32873;BME280;19224;52.462;16.898;2023-11-19T04:17:08;100266.61;;;4.20;100.00
32873;BME280;19224;52.462;16.898;2023-11-19T04:19:39;100261.75;;;4.20;100.00
32873;BME280;19224;52.462;16.898;2023-11-19T04:22:10;100250.44;;;4.29;100.00
32873;BME280;19224;52.462;16.898;2023-11-19T04:24:40;100262.94;;;4.26;100.00
32873;BME280;19224;52.462;16.898;2023-11-19T04:27:13;100257.58;;;4.29;100.00
32873;BME280;19224;52.462;16.898;2023-11-19T04:29:44;100243.28;;;4.31;100.00
32873;BME280;19224;52.462;16.898;2023-11-19T04:32:16;100227.27;;;4.33;100.00
32873;BME280;19224;52.462;16.898;2023-11-19T04:34:46;100230.21;;;4.19;100.00
32873;BME280;19224;52.462;16.898;2023-11-19T04:37:16;100240.45;;;4.18;100.00
32873;BME280;19224;52.462;16.898;2023-11-19T04:39:46;100234.94;;;4.27;100.00
32873;BME280;19224;52.462;16.898;2023-11-19T04:42:16;100240.34;;;4.24;100.00
32873;BME280;19224;52.462;16.898;2023-11-19T04:44:47;100239.36;;;4.28;100.00
32873;BME280;19224;52.462;16.898;2023-11-19T04:47:17;100235.27;;;4.33;100.00
32873;BME280;19224;52.462;16.898;2023-11-19T04:49:47;100232.53;;;4.36;100.00
32873;BME280;19224;52.462;16.898;2023-11-19T04:52:17;100227.34;;;4.30;100.00
32873;BME280;19224;52.462;16.898;2023-11-19T04:54:48;100227.94;;;4.42;100.00
32873;BME280;19224;52.462;16.898;2023-11-19T04:57:20;100226.45;;;4.29;100.00
32873;BME280;19224;52.462;16.898;2023-11-19T04:59:50;100222.17;;;4.22;100.00
32873;BME280;19224;52.462;16.898;2023-11-19T05:02:20;100226.17;;;4.22;100.00
32873;BME280;19224;52.462;16.898;2023-11-19T05:04:50;100219.97;;;4.20;100.00
32873;BME280;19224;52.462;16.898;2023-11-19T05:07:21;100217.27;;;4.23;100.00
32873;BME280;19224;52.462;16.898;2023-11-19T05:09:51;100206.64;;;4.20;100.00
32873;BME280;19224;52.462;16.898;2023-11-19T05:12:21;100206.48;;;4.28;100.00
32873;BME280;19224;52.462;16.898;2023-11-19T05:14:53;100193.05;;;4.32;100.00
32873;BME280;19224;52.462;16.898;2023-11-19T05:17:24;100172.64;;;4.31;100.00
32873;BME280;19224;52.462;16.898;2023-11-19T05:19:54;100165.07;;;4.32;100.00
32873;BME280;19224;52.462;16.898;2023-11-19T05:22:24;100164.31;;;4.27;100.00
32873;BME280;19224;52.462;16.898;2023-11-19T05:24:55;100170.05;;;4.28;100.00
32873;BME280;19224;52.462;16.898;2023-11-19T05:27:25;100165.75;;;4.21;100.00
32873;BME280;19224;52.462;16.898;2023-11-19T05:29:56;100155.00;;;4.26;100.00
32873;BME280;19224;52.462;16.898;2023-11-19T05:32:26;100156.56;;;4.17;100.00
32873;BME280;19224;52.462;16.898;2023-11-19T05:34:56;100145.23;;;4.26;100.00
32873;BME280;19224;52.462;16.898;2023-11-19T05:37:26;100141.39;;;4.38;100.00
32873;BME280;19224;52.462;16.898;2023-11-19T05:39:56;100129.23;;;4.26;100.00
32873;BME280;19224;52.462;16.898;2023-11-19T05:42:28;100114.92;;;4.30;100.00
32873;BME280;19224;52.462;16.898;2023-11-19T05:44:59;100111.30;;;4.34;100.00
32873;BME280;19224;52.462;16.898;2023-11-19T05:47:29;100112.25;;;4.30;100.00
32873;BME280;19224;52.462;16.898;2023-11-19T05:49:59;100104.66;;;4.33;100.00
32873;BME280;19224;52.462;16.898;2023-11-19T05:52:29;100096.84;;;4.25;100.00
32873;BME280;19224;52.462;16.898;2023-11-19T05:55:02;100084.39;;;4.43;100.00
32873;BME280;19224;52.462;16.898;2023-11-19T05:57:34;100074.63;;;4.44;100.00
32873;BME280;19224;52.462;16.898;2023-11-19T06:00:06;100078.44;;;4.32;100.00
32873;BME280;19224;52.462;16.898;2023-11-19T06:02:37;100063.23;;;4.37;100.00
32873;BME280;19224;52.462;16.898;2023-11-19T06:05:07;100063.65;;;4.38;100.00
32873;BME280;19224;52.462;16.898;2023-11-19T06:07:38;100060.07;;;4.39;100.00
32873;BME280;19224;52.462;16.898;2023-11-19T06:10:13;100059.00;;;4.29;100.00
32873;BME280;19224;52.462;16.898;2023-11-19T06:12:46;100048.59;;;4.36;100.00
32873;BME280;19224;52.462;16.898;2023-11-19T06:15:16;100052.07;;;4.39;100.00
32873;BME280;19224;52.462;16.898;2023-11-19T06:17:48;100049.84;;;4.39;100.00
32873;BME280;19224;52.462;16.898;2023-11-19T06:20:19;100049.27;;;4.45;100.00
32873;BME280;19224;52.462;16.898;2023-11-19T06:22:49;100045.84;;;4.39;100.00
32873;BME280;19224;52.462;16.898;2023-11-19T06:25:20;100037.10;;;4.34;100.00
32873;BME280;19224;52.462;16.898;2023-11-19T06:27:54;100032.19;;;4.52;100.00
32873;BME280;19224;52.462;16.898;2023-11-19T06:30:23;100027.97;;;4.44;100.00
32873;BME280;19224;52.462;16.898;2023-11-19T06:32:54;100014.42;;;4.35;100.00
32873;BME280;19224;52.462;16.898;2023-11-19T06:35:25;100006.64;;;4.44;100.00
32873;BME280;19224;52.462;16.898;2023-11-19T06:37:55;100008.22;;;4.33;100.00
32873;BME280;19224;52.462;16.898;2023-11-19T06:40:26;100008.80;;;4.28;100.00
32873;BME280;19224;52.462;16.898;2023-11-19T06:42:56;100003.89;;;4.29;100.00
32873;BME280;19224;52.462;16.898;2023-11-19T06:45:26;99993.84;;;4.40;100.00
32873;BME280;19224;52.462;16.898;2023-11-19T06:47:56;99993.34;;;4.42;100.00
32873;BME280;19224;52.462;16.898;2023-11-19T06:50:27;99983.90;;;4.47;100.00
32873;BME280;19224;52.462;16.898;2023-11-19T06:52:58;99977.44;;;4.39;100.00
32873;BME280;19224;52.462;16.898;2023-11-19T06:55:28;99970.06;;;4.49;100.00
32873;BME280;19224;52.462;16.898;2023-11-19T06:58:01;99973.89;;;4.56;100.00
32873;BME280;19224;52.462;16.898;2023-11-19T07:00:32;99976.81;;;4.46;100.00
32873;BME280;19224;52.462;16.898;2023-11-19T07:03:04;99968.02;;;4.42;100.00
32873;BME280;19224;52.462;16.898;2023-11-19T07:05:37;99958.05;;;4.50;100.00
32873;BME280;19224;52.462;16.898;2023-11-19T07:08:10;99958.55;;;4.64;100.00
32873;BME280;19224;52.462;16.898;2023-11-19T07:10:40;99954.87;;;4.52;100.00
32873;BME280;19224;52.462;16.898;2023-11-19T07:13:11;99945.63;;;4.49;100.00
32873;BME280;19224;52.462;16.898;2023-11-19T07:15:41;99930.05;;;4.50;100.00
32873;BME280;19224;52.462;16.898;2023-11-19T07:18:11;99917.81;;;4.59;100.00
32873;BME280;19224;52.462;16.898;2023-11-19T07:20:43;99910.04;;;4.66;100.00
32873;BME280;19224;52.462;16.898;2023-11-19T07:23:15;99893.00;;;4.71;100.00
32873;BME280;19224;52.462;16.898;2023-11-19T07:25:47;99900.45;;;4.75;100.00
32873;BME280;19224;52.462;16.898;2023-11-19T07:28:19;99904.02;;;4.75;100.00
32873;BME280;19224;52.462;16.898;2023-11-19T07:30:49;99900.63;;;4.53;100.00
32873;BME280;19224;52.462;16.898;2023-11-19T07:33:20;99903.70;;;4.54;100.00
32873;BME280;19224;52.462;16.898;2023-11-19T07:35:50;99891.02;;;4.63;100.00
32873;BME280;19224;52.462;16.898;2023-11-19T07:38:21;99890.39;;;4.70;100.00
32873;BME280;19224;52.462;16.898;2023-11-19T07:40:51;99890.20;;;4.76;100.00
32873;BME280;19224;52.462;16.898;2023-11-19T07:43:21;99886.97;;;4.81;100.00
32873;BME280;19224;52.462;16.898;2023-11-19T07:45:52;99877.44;;;4.87;100.00
32873;BME280;19224;52.462;16.898;2023-11-19T07:48:22;99882.30;;;4.89;100.00
32873;BME280;19224;52.462;16.898;2023-11-19T07:50:54;99876.30;;;4.81;100.00
32873;BME280;19224;52.462;16.898;2023-11-19T07:53:25;99875.94;;;4.93;100.00
32873;BME280;19224;52.462;16.898;2023-11-19T07:55:55;99867.17;;;4.88;100.00
32873;BME280;19224;52.462;16.898;2023-11-19T07:58:25;99875.05;;;4.92;100.00
32873;BME280;19224;52.462;16.898;2023-11-19T08:00:56;99866.01;;;4.83;100.00
32873;BME280;19224;52.462;16.898;2023-11-19T08:03:28;99868.03;;;4.90;100.00
32873;BME280;19224;52.462;16.898;2023-11-19T08:05:59;99855.41;;;5.11;100.00
32873;BME280;19224;52.462;16.898;2023-11-19T08:08:31;99841.85;;;5.17;100.00
32873;BME280;19224;52.462;16.898;2023-11-19T08:11:02;99839.08;;;5.20;100.00
32873;BME280;19224;52.462;16.898;2023-11-19T08:13:34;99835.62;;;5.31;100.00
32873;BME280;19224;52.462;16.898;2023-11-19T08:16:05;99825.45;;;5.29;100.00
32873;BME280;19224;52.462;16.898;2023-11-19T08:18:35;99818.89;;;5.26;100.00
32873;BME280;19224;52.462;16.898;2023-11-19T08:21:06;99814.67;;;5.32;100.00
32873;BME280;19224;52.462;16.898;2023-11-19T08:23:38;99813.98;;;5.40;100.00
32873;BME280;19224;52.462;16.898;2023-11-19T08:26:08;99796.92;;;5.44;100.00
32873;BME280;19224;52.462;16.898;2023-11-19T08:28:39;99797.53;;;5.26;100.00
32873;BME280;19224;52.462;16.898;2023-11-19T08:31:09;99794.86;;;5.26;100.00
32873;BME280;19224;52.462;16.898;2023-11-19T08:33:40;99785.41;;;5.29;100.00
32873;BME280;19224;52.462;16.898;2023-11-19T08:36:17;99783.75;;;5.39;100.00
32873;BME280;19224;52.462;16.898;2023-11-19T08:38:48;99769.96;;;5.38;100.00
32873;BME280;19224;52.462;16.898;2023-11-19T08:41:18;99761.91;;;5.40;100.00
32873;BME280;19224;52.462;16.898;2023-11-19T08:43:48;99768.28;;;5.23;100.00
32873;BME280;19224;52.462;16.898;2023-11-19T08:46:19;99767.14;;;5.30;100.00
32873;BME280;19224;52.462;16.898;2023-11-19T08:48:50;99760.98;;;5.28;100.00
32873;BME280;19224;52.462;16.898;2023-11-19T08:51:24;99764.95;;;5.29;100.00
32873;BME280;19224;52.462;16.898;2023-11-19T08:53:55;99757.34;;;5.30;100.00
32873;BME280;19224;52.462;16.898;2023-11-19T08:56:26;99763.40;;;5.35;100.00
32873;BME280;19224;52.462;16.898;2023-11-19T08:58:58;99758.54;;;5.35;100.00
32873;BME280;19224;52.462;16.898;2023-11-19T09:01:28;99757.20;;;5.35;100.00
32873;BME280;19224;52.462;16.898;2023-11-19T09:03:59;99748.27;;;5.49;100.00
32873;BME280;19224;52.462;16.898;2023-11-19T09:06:29;99744.38;;;5.46;100.00
32873;BME280;19224;52.462;16.898;2023-11-19T09:08:59;99738.81;;;5.52;100.00
32873;BME280;19224;52.462;16.898;2023-11-19T09:11:31;99741.37;;;5.55;100.00
32873;BME280;19224;52.462;16.898;2023-11-19T09:14:01;99732.95;;;5.54;100.00
32873;BME280;19224;52.462;16.898;2023-11-19T09:16:32;99723.12;;;5.56;100.00
32873;BME280;19224;52.462;16.898;2023-11-19T09:19:02;99719.19;;;5.53;100.00
32873;BME280;19224;52.462;16.898;2023-11-19T09:21:34;99715.94;;;5.45;100.00
32873;BME280;19224;52.462;16.898;2023-11-19T09:24:06;99720.09;;;5.40;100.00
32873;BME280;19224;52.462;16.898;2023-11-19T09:26:37;99711.18;;;5.53;100.00
32873;BME280;19224;52.462;16.898;2023-11-19T09:29:09;99711.08;;;5.30;100.00
32873;BME280;19224;52.462;16.898;2023-11-19T09:31:39;99706.07;;;5.34;100.00
32873;BME280;19224;52.462;16.898;2023-11-19T09:34:10;99707.03;;;5.31;100.00
32873;BME280;19224;52.462;16.898;2023-11-19T09:36:41;99700.73;;;5.34;100.00
32873;BME280;19224;52.462;16.898;2023-11-19T09:39:13;99695.87;;;5.19;100.00
32873;BME280;19224;52.462;16.898;2023-11-19T09:41:47;99691.51;;;5.16;100.00
32873;BME280;19224;52.462;16.898;2023-11-19T09:44:18;99693.84;;;5.14;100.00
32873;BME280;19224;52.462;16.898;2023-11-19T09:46:49;99687.61;;;5.13;100.00
32873;BME280;19224;52.462;16.898;2023-11-19T09:49:22;99689.16;;;5.07;100.00
32873;BME280;19224;52.462;16.898;2023-11-19T09:51:54;99687.05;;;5.04;100.00
32873;BME280;19224;52.462;16.898;2023-11-19T09:54:24;99690.94;;;4.94;100.00
32873;BME280;19224;52.462;16.898;2023-11-19T09:56:57;99681.04;;;4.97;100.00
32873;BME280;19224;52.462;16.898;2023-11-19T09:59:37;99677.71;;;5.04;100.00
32873;BME280;19224;52.462;16.898;2023-11-19T10:02:08;99675.16;;;5.14;100.00
32873;BME280;19224;52.462;16.898;2023-11-19T10:04:40;99670.78;;;5.11;100.00
32873;BME280;19224;52.462;16.898;2023-11-19T10:07:13;99670.08;;;5.06;100.00
32873;BME280;19224;52.462;16.898;2023-11-19T10:09:43;99661.19;;;5.06;100.00
32873;BME280;19224;52.462;16.898;2023-11-19T10:12:15;99658.41;;;5.09;100.00
32873;BME280;19224;52.462;16.898;2023-11-19T10:14:47;99650.62;;;5.03;100.00
32873;BME280;19224;52.462;16.898;2023-11-19T10:17:20;99647.32;;;4.95;100.00
32873;BME280;19224;52.462;16.898;2023-11-19T10:19:50;99646.36;;;4.97;100.00
32873;BME280;19224;52.462;16.898;2023-11-19T10:22:24;99642.50;;;4.93;100.00
32873;BME280;19224;52.462;16.898;2023-11-19T10:24:55;99641.88;;;4.98;100.00
32873;BME280;19224;52.462;16.898;2023-11-19T10:27:26;99631.28;;;4.96;100.00
32873;BME280;19224;52.462;16.898;2023-11-19T10:30:01;99628.65;;;4.95;100.00
32873;BME280;19224;52.462;16.898;2023-11-19T10:32:31;99623.68;;;4.97;100.00
32873;BME280;19224;52.462;16.898;2023-11-19T10:35:08;99609.71;;;5.02;100.00
32873;BME280;19224;52.462;16.898;2023-11-19T10:37:40;99610.48;;;4.93;100.00
32873;BME280;19224;52.462;16.898;2023-11-19T10:40:11;99606.90;;;4.94;100.00
32873;BME280;19224;52.462;16.898;2023-11-19T10:42:42;99617.20;;;4.91;100.00
32873;BME280;19224;52.462;16.898;2023-11-19T10:45:23;99608.64;;;4.95;100.00
32873;BME280;19224;52.462;16.898;2023-11-19T10:47:55;99601.14;;;5.06;100.00
32873;BME280;19224;52.462;16.898;2023-11-19T10:50:27;99579.49;;;5.15;100.00
32873;BME280;19224;52.462;16.898;2023-11-19T10:52:58;99533.20;;;5.16;100.00
32873;BME280;19224;52.462;16.898;2023-11-19T10:55:32;99560.09;;;4.97;100.00
32873;BME280;19224;52.462;16.898;2023-11-19T10:58:08;99569.23;;;5.03;100.00
32873;BME280;19224;52.462;16.898;2023-11-19T11:00:57;99575.84;;;5.04;100.00
32873;BME280;19224;52.462;16.898;2023-11-19T11:03:31;99572.86;;;5.13;100.00
32873;BME280;19224;52.462;16.898;2023-11-19T11:06:04;99551.20;;;5.22;100.00
32873;BME280;19224;52.462;16.898;2023-11-19T11:08:37;99546.83;;;5.20;100.00
32873;BME280;19224;52.462;16.898;2023-11-19T11:11:09;99533.69;;;5.27;100.00
32873;BME280;19224;52.462;16.898;2023-11-19T11:13:43;99531.22;;;5.34;100.00
32873;BME280;19224;52.462;16.898;2023-11-19T11:16:21;99521.27;;;5.26;100.00
32873;BME280;19224;52.462;16.898;2023-11-19T11:18:48;99526.61;;;5.37;100.00
32873;BME280;19224;52.462;16.898;2023-11-19T11:21:22;99523.21;;;5.21;100.00
32873;BME280;19224;52.462;16.898;2023-11-19T11:30:23;99484.34;;;5.25;100.00
32873;BME280;19224;52.462;16.898;2023-11-19T11:32:52;99488.67;;;5.05;100.00
32873;BME280;19224;52.462;16.898;2023-11-19T11:35:44;99484.52;;;5.21;100.00
32873;BME280;19224;52.462;16.898;2023-11-19T11:38:13;99484.71;;;5.28;100.00
32873;BME280;19224;52.462;16.898;2023-11-19T11:40:46;99483.25;;;5.31;100.00
32873;BME280;19224;52.462;16.898;2023-11-19T11:49:09;99471.81;;;5.16;100.00
32873;BME280;19224;52.462;16.898;2023-11-19T11:57:11;99454.67;;;4.98;100.00
32873;BME280;19224;52.462;16.898;2023-11-19T11:59:46;99455.12;;;5.11;100.00
32873;BME280;19224;52.462;16.898;2023-11-19T12:02:22;99449.66;;;5.14;100.00
32873;BME280;19224;52.462;16.898;2023-11-19T12:04:53;99444.44;;;5.22;100.00
32873;BME280;19224;52.462;16.898;2023-11-19T12:07:25;99432.95;;;5.20;100.00
32873;BME280;19224;52.462;16.898;2023-11-19T12:10:09;99428.47;;;5.21;100.00
32873;BME280;19224;52.462;16.898;2023-11-19T12:12:44;99416.94;;;5.20;100.00
32873;BME280;19224;52.462;16.898;2023-11-19T12:15:15;99420.53;;;5.31;100.00
32873;BME280;19224;52.462;16.898;2023-11-19T12:17:50;99416.25;;;5.27;100.00
32873;BME280;19224;52.462;16.898;2023-11-19T12:20:24;99410.38;;;5.29;100.00
32873;BME280;19224;52.462;16.898;2023-11-19T12:22:55;99418.50;;;5.03;100.00
32873;BME280;19224;52.462;16.898;2023-11-19T12:25:26;99418.44;;;5.16;100.00
32873;BME280;19224;52.462;16.898;2023-11-19T12:27:57;99409.00;;;5.30;100.00
32873;BME280;19224;52.462;16.898;2023-11-19T12:30:27;99403.75;;;5.27;100.00
32873;BME280;19224;52.462;16.898;2023-11-19T12:32:58;99402.16;;;5.35;100.00
32873;BME280;19224;52.462;16.898;2023-11-19T12:35:29;99396.00;;;5.21;100.00
32873;BME280;19224;52.462;16.898;2023-11-19T12:37:59;99392.05;;;5.31;100.00
32873;BME280;19224;52.462;16.898;2023-11-19T12:40:30;99397.75;;;5.34;100.00
32873;BME280;19224;52.462;16.898;2023-11-19T12:43:00;99391.63;;;5.42;100.00
32873;BME280;19224;52.462;16.898;2023-11-19T12:45:37;99400.75;;;5.48;100.00
32873;BME280;19224;52.462;16.898;2023-11-19T12:48:09;99401.73;;;5.57;100.00
32873;BME280;19224;52.462;16.898;2023-11-19T12:50:57;99399.94;;;5.46;100.00
32873;BME280;19224;52.462;16.898;2023-11-19T12:53:29;99387.17;;;5.42;100.00
32873;BME280;19224;52.462;16.898;2023-11-19T12:56:07;99381.05;;;5.62;100.00
32873;BME280;19224;52.462;16.898;2023-11-19T12:58:36;99378.14;;;5.68;100.00
32873;BME280;19224;52.462;16.898;2023-11-19T13:01:08;99381.84;;;5.75;100.00
32873;BME280;19224;52.462;16.898;2023-11-19T13:03:41;99371.73;;;5.72;100.00
32873;BME280;19224;52.462;16.898;2023-11-19T13:06:14;99369.47;;;5.73;100.00
32873;BME280;19224;52.462;16.898;2023-11-19T13:08:48;99360.39;;;5.77;100.00
32873;BME280;19224;52.462;16.898;2023-11-19T13:11:34;99354.11;;;5.68;100.00
32873;BME280;19224;52.462;16.898;2023-11-19T13:14:07;99349.50;;;5.83;100.00
32873;BME280;19224;52.462;16.898;2023-11-19T13:16:41;99352.44;;;5.87;100.00
32873;BME280;19224;52.462;16.898;2023-11-19T13:19:12;99343.97;;;5.87;100.00
32873;BME280;19224;52.462;16.898;2023-11-19T13:21:43;99341.77;;;5.75;100.00
32873;BME280;19224;52.462;16.898;2023-11-19T13:24:15;99344.44;;;5.75;100.00
32873;BME280;19224;52.462;16.898;2023-11-19T13:26:45;99326.93;;;5.80;100.00